Weather at Meir Medical Center Helipad

Public forecast

Using degrees Celsius for public forecast. Weather courtesy of forecast.io.

Closest aviation weather report (METAR) to Meir Medical Center Helipad

Closest report is Ben Gurion International Airport, 10.4 nm (19.2 km) S.

2024/04/22 06:20 (retrieved 14 minutes ago)

LLBG 220620Z 03004KT CAVOK 21/12 Q1018 NOSIG

Closest aviation forecast (TAF) to Meir Medical Center Helipad

Closest forecast is Herzliya Airport, 3.1 nm (5.7 km) W.

2024/04/22 06:00 (retrieved 34 minutes ago)

TAF LLHZ 220503Z 2206/2306 VRB03KT CAVOK BECMG 2207/2209 33012KT BECMG 2214/2216 02005KT PROB30 2222/2303 7000 SCT005 TX23/2211Z TN16/2304Z